Traverse City, Michigan
Current Conditions -  °F | °C
As of 2:53 PM on Wednesday 17 Dec 2014 (Local Time) from KTVC Reporting Station
Light Snow Light Snow  
Wind Chill: 19°   Ceiling: 1600
Heat Index: 29°   Visibility: 2mi
Dew Point: 25°   Wind: 13mph
Humidity: 85%   Direction: 280°W
Pressure: 30.02"   Gusts: NA
Location:  44.76°N, 85.61°W
Report Text: KTVC 171953Z 28011KT 2SM -SN BR BKN016 OVC026 M02/M04 A3002 RMK AO2 SLP175 P0001 T10171039
Loading
Personal Weather Stations






























Interactive Weather Map New forecast layout! Learn more

10-Day Weather Forecast

Advertisements
Track Severe Weather on mobile